Time;durP1;ratioP1;P1;durP2;ratioP2;P2;SDS_P1;SDS_P2;PMS_P1;PMS_P2;Temp;Humidity;BMP_temperature;BMP_pressure;BME280_temperature;BME280_humidity;BME280_pressure;Samples;Min_cycle;Max_cycle;Signal;HPM_P1;HPM_P2
2022/01/14 00:02:16;;;;;;;14.05;12.18;;;-1.90;99.90;-2.40;95922.00;;;;4975343;28;87492;-52
2022/01/14 00:04:43;;;;;;;14.82;11.25;;;-1.80;99.90;-2.30;95917.00;;;;4977841;28;87057;-54
2022/01/14 00:07:10;;;;;;;14.48;12.80;;;-1.80;99.90;-2.30;95918.00;;;;4975286;28;90852;-51
2022/01/14 00:09:37;;;;;;;18.15;13.00;;;-1.70;99.90;-2.20;95913.00;;;;4977706;28;87393;-56
2022/01/14 00:12:15;;;;;;;14.35;12.82;;;-1.70;99.90;-2.20;95906.00;;;;4977431;28;88950;-59
2022/01/14 00:14:44;;;;;;;14.60;11.50;;;-1.70;99.90;-2.20;95908.00;;;;4977358;28;86991;-58
2022/01/14 00:17:13;;;;;;;15.63;13.18;;;-1.60;99.90;-2.10;95894.00;;;;4974922;28;87576;-59
2022/01/14 00:19:41;;;;;;;16.70;12.82;;;-1.60;99.90;-2.10;95888.00;;;;4977102;28;87957;-60
2022/01/14 00:22:13;;;;;;;13.65;10.80;;;-1.50;99.90;-2.00;95890.00;;;;4977490;28;87374;-59
2022/01/14 00:33:06;;;;;;;14.43;12.52;;;-1.30;99.90;-1.70;95844.00;;;;4977412;28;87148;-51
2022/01/14 00:35:35;;;;;;;13.80;12.02;;;-1.20;99.90;-1.70;95846.00;;;;4976135;28;88200;-53
2022/01/14 00:38:01;;;;;;;13.95;11.30;;;-1.20;99.90;-1.60;95843.00;;;;4958668;28;89866;-53
2022/01/14 00:40:27;;;;;;;14.32;12.82;;;-1.10;99.90;-1.50;95847.00;;;;4976218;28;88270;-59
2022/01/14 00:42:54;;;;;;;14.10;12.20;;;-1.00;99.90;-1.50;95837.00;;;;4976674;28;87027;-59
2022/01/14 00:45:20;;;;;;;15.63;12.75;;;-1.00;99.90;-1.40;95848.00;;;;4976946;28;87441;-59
2022/01/14 00:47:48;;;;;;;15.95;13.13;;;-0.90;99.90;-1.30;95830.00;;;;4976683;28;87759;-52
2022/01/14 00:50:17;;;;;;;15.80;12.32;;;-0.80;99.90;-1.20;95813.00;;;;4976850;28;88094;-52
2022/01/14 00:52:44;;;;;;;15.93;12.93;;;-0.70;99.90;-1.10;95825.00;;;;4958723;28;87221;-50
2022/01/14 00:55:17;;;;;;;12.98;10.90;;;-0.70;99.90;-1.00;95807.00;;;;4973878;28;87002;-55
2022/01/14 01:00:33;;;;;;;12.05;10.82;;;-0.50;99.90;-0.90;95797.00;;;;4974723;28;88406;-59
2022/01/14 01:03:01;;;;;;;15.15;12.05;;;-0.40;99.90;-0.80;95785.00;;;;4975537;28;87929;-58
2022/01/14 01:05:28;;;;;;;12.63;10.27;;;-0.30;99.90;-0.70;95778.00;;;;4976180;28;87375;-58
2022/01/14 01:10:24;;;;;;;12.52;9.57;;;-0.10;99.90;-0.50;95783.00;;;;4976959;28;87208;-60
2022/01/14 01:12:56;;;;;;;8.85;7.88;;;-0.10;99.90;-0.50;95789.00;;;;4977725;28;87208;-58
2022/01/14 01:15:22;;;;;;;12.50;9.38;;;0.00;99.90;-0.40;95769.00;;;;4976484;28;87519;-59
2022/01/14 01:17:49;;;;;;;10.15;8.38;;;0.10;99.90;-0.30;95749.00;;;;4976603;28;87712;-59
2022/01/14 01:20:20;;;;;;;8.75;6.88;;;0.10;99.90;-0.30;95741.00;;;;4977868;28;87277;-60
2022/01/14 01:22:50;;;;;;;9.27;7.57;;;0.20;99.90;-0.20;95743.00;;;;4975686;28;87355;-59
2022/01/14 01:25:36;;;;;;;8.85;7.70;;;0.30;99.90;-0.20;95735.00;;;;4960017;28;87721;-59
2022/01/14 01:28:04;;;;;;;9.27;7.95;;;0.30;99.90;-0.20;95724.00;;;;4976663;28;88764;-59
2022/01/14 01:33:00;;;;;;;6.38;5.70;;;0.30;99.90;-0.10;95737.00;;;;4979377;28;87012;-60
2022/01/14 01:35:27;;;;;;;7.10;5.78;;;0.40;99.90;0.00;95727.00;;;;4977042;28;87319;-59
2022/01/14 01:37:54;;;;;;;7.63;6.13;;;0.50;99.90;0.00;95716.00;;;;4976614;28;87711;-59
2022/01/14 01:40:25;;;;;;;7.65;5.70;;;0.50;99.90;0.00;95707.00;;;;4974854;28;89896;-59
2022/01/14 01:42:53;;;;;;;;;;;0.50;99.90;0.00;95717.00;;;;4977030;28;87604;-59
2022/01/14 01:45:23;;;;;;;7.38;6.10;;;0.50;99.90;0.00;95715.00;;;;4975829;28;86800;-59
2022/01/14 01:47:53;;;;;;;6.90;5.40;;;0.60;99.90;0.10;95705.00;;;;4976593;28;87881;-59
2022/01/14 01:50:27;;;;;;;6.65;5.38;;;0.60;99.90;0.10;95704.00;;;;4976873;28;88539;-53
2022/01/14 01:52:55;;;;;;;5.57;5.00;;;0.60;99.90;0.10;95697.00;;;;4975425;28;87902;-54
2022/01/14 01:55:22;;;;;;;5.85;4.90;;;0.70;99.90;0.20;95694.00;;;;4979045;28;87473;-53
2022/01/14 01:57:50;;;;;;;7.55;5.13;;;0.70;99.90;0.20;95670.00;;;;4979627;28;87686;-54
2022/01/14 02:00:21;;;;;;;6.55;5.47;;;0.70;99.90;0.20;95672.00;;;;4980156;28;87424;-53
2022/01/14 02:02:49;;;;;;;6.15;5.15;;;0.70;99.90;0.20;95661.00;;;;4979721;28;86953;-61
2022/01/14 02:05:17;;;;;;;8.27;5.60;;;0.70;99.90;0.20;95681.00;;;;4980661;28;87452;-60
2022/01/14 02:07:45;;;;;;;6.55;5.13;;;0.70;99.90;0.20;95675.00;;;;4979967;28;88005;-59
2022/01/14 02:10:11;;;;;;;7.88;4.90;;;0.80;99.90;0.30;95670.00;;;;4957324;28;88600;-58
2022/01/14 02:12:46;;;;;;;6.22;4.55;;;0.80;99.90;0.30;95655.00;;;;4980692;28;87430;-49
2022/01/14 02:15:27;;;;;;;8.05;4.63;;;0.80;99.90;0.30;95648.00;;;;4980253;28;87390;-54
2022/01/14 02:18:39;;;;;;;6.10;4.30;;;0.80;99.90;0.30;95654.00;;;;4977250;28;89173;-53
2022/01/14 02:23:30;;;;;;;5.55;4.45;;;0.90;99.90;0.40;95634.00;;;;4981611;28;87339;-55
2022/01/14 02:25:57;;;;;;;8.25;4.38;;;0.90;99.90;0.40;95616.00;;;;4978168;28;87599;-52
2022/01/14 02:28:23;;;;;;;7.60;5.05;;;0.90;99.90;0.40;95627.00;;;;4978698;28;88917;-52
2022/01/14 02:30:50;;;;;;;7.25;4.60;;;0.90;99.90;0.40;95608.00;;;;4979158;28;87525;-52
2022/01/14 02:33:18;;;;;;;4.85;4.03;;;0.90;99.90;0.40;95608.00;;;;4982123;28;87327;-52
2022/01/14 02:35:47;;;;;;;6.88;4.65;;;0.90;99.90;0.50;95598.00;;;;4979954;28;87377;-55
2022/01/14 02:38:15;;;;;;;10.00;4.57;;;0.90;99.90;0.50;95596.00;;;;4976804;28;88443;-51
2022/01/14 02:40:43;;;;;;;5.80;3.85;;;0.90;99.90;0.50;95605.00;;;;4976022;28;87959;-52
2022/01/14 02:43:15;;;;;;;7.82;4.10;;;0.90;99.90;0.50;95592.00;;;;4978144;28;88247;-53
2022/01/14 02:45:47;;;;;;;4.93;3.58;;;0.90;99.90;0.50;95608.00;;;;4980043;28;87368;-53
2022/01/14 02:48:13;;;;;;;6.28;3.85;;;0.90;99.90;0.50;95591.00;;;;4976909;28;87728;-52
2022/01/14 02:50:43;;;;;;;9.18;4.28;;;0.90;99.90;0.50;95582.00;;;;4979310;28;87914;-55
2022/01/14 02:53:57;;;;;;;5.53;3.60;;;0.90;99.90;0.50;95581.00;;;;4979387;28;87384;-54
2022/01/14 02:56:02;;;;;;;5.38;3.55;;;0.90;99.90;0.50;95582.00;;;;4973450;28;87728;-53
2022/01/14 02:58:31;;;;;;;6.47;3.90;;;1.00;99.90;0.60;95563.00;;;;4978169;28;88653;-52
2022/01/14 03:01:06;;;;;;;5.57;3.60;;;1.00;99.90;0.60;95567.00;;;;4979721;28;87317;-52
2022/01/14 03:03:33;;;;;;;6.97;3.70;;;1.00;99.90;0.60;95564.00;;;;4976162;28;87438;-54
2022/01/14 03:06:02;;;;;;;4.65;3.40;;;1.00;99.90;0.70;95553.00;;;;4978197;28;87434;-51
2022/01/14 03:08:28;;;;;;;5.55;3.38;;;1.10;99.90;0.70;95541.00;;;;4978175;28;89488;-59
2022/01/14 03:11:15;;;;;;;6.20;3.70;;;1.10;99.90;0.70;95550.00;;;;4977544;28;89278;-61
2022/01/14 03:13:41;;;;;;;5.13;4.07;;;1.10;99.90;0.70;95571.00;;;;4975925;28;87253;-60
2022/01/14 03:16:08;;;;;;;5.88;3.13;;;1.10;99.90;0.70;95523.00;;;;4976989;28;87316;-61
2022/01/14 03:18:44;;;;;;;4.43;2.70;;;1.10;99.90;0.70;95526.00;;;;4977371;28;88087;-60
2022/01/14 03:21:11;;;;;;;4.30;3.58;;;1.10;99.90;0.70;95526.00;;;;4978152;28;87691;-60
2022/01/14 03:23:47;;;;;;;7.18;3.42;;;1.10;99.90;0.70;95518.00;;;;4979370;28;87348;-60
2022/01/14 03:26:19;;;;;;;5.13;3.05;;;1.10;99.90;0.70;95504.00;;;;4976924;28;86683;-55
2022/01/14 03:28:47;;;;;;;8.05;3.22;;;1.20;99.90;0.80;95504.00;;;;4977777;28;87702;-55
2022/01/14 03:31:14;;;;;;;7.85;3.60;;;1.10;99.90;0.70;95487.00;;;;4976204;28;87410;-57
2022/01/14 03:33:41;;;;;;;6.20;3.58;;;1.10;99.90;0.80;95480.00;;;;4978210;28;88028;-54
2022/01/14 03:36:07;;;;;;;5.85;3.33;;;1.20;99.90;0.80;95462.00;;;;4977892;28;87626;-54
2022/01/14 03:38:34;;;;;;;4.45;3.20;;;1.20;99.90;0.80;95454.00;;;;4978410;28;87563;-52
2022/01/14 03:41:01;;;;;;;8.95;3.67;;;1.20;99.90;0.70;95462.00;;;;4976213;28;87428;-54
2022/01/14 03:43:28;;;;;;;7.43;3.40;;;1.20;99.90;0.80;95443.00;;;;4977331;28;87676;-53
2022/01/14 03:45:54;;;;;;;8.02;3.95;;;1.10;99.90;0.80;95434.00;;;;4978827;28;87681;-52
2022/01/14 03:48:20;;;;;;;6.63;3.67;;;1.20;99.90;0.80;95452.00;;;;4978155;28;87753;-52
2022/01/14 03:50:47;;;;;;;8.02;4.00;;;1.20;99.90;0.80;95451.00;;;;4978661;28;87352;-54
2022/01/14 03:53:13;;;;;;;6.13;4.15;;;1.20;99.90;0.80;95432.00;;;;4978258;28;87148;-54
2022/01/14 03:55:42;;;;;;;7.18;4.30;;;1.20;99.90;0.80;95433.00;;;;4976937;28;87410;-55
2022/01/14 03:58:09;;;;;;;5.63;4.22;;;1.20;99.90;0.80;95454.00;;;;4976929;28;88415;-55
2022/01/14 04:00:36;;;;;;;10.77;3.92;;;1.20;99.90;0.80;95422.00;;;;4975887;28;88284;-54
2022/01/14 04:03:03;;;;;;;6.57;3.72;;;1.20;99.90;0.80;95434.00;;;;4978255;28;87035;-51
2022/01/14 04:05:30;;;;;;;5.32;3.80;;;1.20;99.90;0.80;95419.00;;;;4978433;28;87770;-50
2022/01/14 04:07:56;;;;;;;8.02;4.13;;;1.30;99.90;0.80;95411.00;;;;4977603;28;88217;-56
2022/01/14 04:10:22;;;;;;;7.35;3.85;;;1.20;99.90;0.80;95381.00;;;;4977714;28;87368;-52
2022/01/14 04:13:37;;;;;;;9.32;4.18;;;1.30;99.90;0.90;95400.00;;;;4980414;28;87694;-53
2022/01/14 04:15:40;;;;;;;7.82;4.05;;;1.30;99.90;0.90;95394.00;;;;4975303;28;86836;-52
2022/01/14 04:18:14;;;;;;;9.43;4.45;;;1.30;99.90;0.90;95394.00;;;;4977829;28;89031;-53
2022/01/14 04:20:43;;;;;;;8.25;3.53;;;1.30;99.90;0.90;95383.00;;;;4976390;28;88150;-50
2022/01/14 04:23:13;;;;;;;7.18;3.75;;;1.30;99.90;0.90;95374.00;;;;4977401;28;87986;-54
2022/01/14 04:25:41;;;;;;;5.90;3.90;;;1.30;99.90;0.90;95375.00;;;;4977747;28;87509;-54
2022/01/14 04:28:11;;;;;;;13.43;5.18;;;1.30;99.90;0.90;95355.00;;;;4977425;28;88965;-52
2022/01/14 04:30:37;;;;;;;11.02;5.40;;;1.30;99.90;1.00;95364.00;;;;4976760;28;87430;-55
2022/01/14 04:33:04;;;;;;;10.93;5.57;;;1.40;99.90;1.00;95349.00;;;;4979405;28;87831;-53
2022/01/14 04:35:32;;;;;;;9.15;5.53;;;1.40;99.90;1.00;95341.00;;;;4977062;28;87352;-53
2022/01/14 04:37:58;;;;;;;9.80;4.93;;;1.40;99.90;1.00;95332.00;;;;4976863;28;87442;-52
2022/01/14 04:40:25;;;;;;;12.27;5.68;;;1.40;99.90;1.00;95324.00;;;;4975831;28;87355;-53
2022/01/14 04:42:52;;;;;;;9.98;5.00;;;1.40;99.90;1.00;95324.00;;;;4977306;28;87946;-56
2022/01/14 04:48:01;;;;;;;10.77;5.82;;;1.40;99.90;1.10;95313.00;;;;4976518;28;88749;-50
2022/01/14 04:50:27;;;;;;;13.50;5.35;;;1.50;99.90;1.10;95307.00;;;;4977334;28;88348;-49
2022/01/14 04:52:54;;;;;;;7.40;5.00;;;1.50;99.90;1.10;95299.00;;;;4976949;28;87260;-53
2022/01/14 04:55:23;;;;;;;12.90;6.07;;;1.50;99.90;1.10;95299.00;;;;4957657;28;88196;-55
2022/01/14 04:57:50;;;;;;;8.85;4.80;;;1.50;99.90;1.10;95308.00;;;;4977024;28;87645;-52
2022/01/14 05:00:20;;;;;;;10.48;5.00;;;1.50;99.90;1.10;95307.00;;;;4976500;28;88363;-53
2022/01/14 05:02:46;;;;;;;11.25;4.88;;;1.50;99.90;1.10;95296.00;;;;4976626;28;87402;-53
2022/01/14 05:05:13;;;;;;;12.43;4.32;;;1.50;99.90;1.20;95289.00;;;;4976747;28;86593;-56
2022/01/14 05:07:42;;;;;;;14.35;5.65;;;1.50;99.90;1.20;95295.00;;;;4976212;28;87737;-54
2022/01/14 05:10:19;;;;;;;8.95;5.15;;;1.50;99.90;1.20;95283.00;;;;4976732;28;88120;-54
2022/01/14 05:12:45;;;;;;;7.25;4.18;;;1.60;99.90;1.10;95290.00;;;;4976028;28;89210;-49
2022/01/14 05:15:15;;;;;;;6.72;4.18;;;1.50;99.90;1.10;95279.00;;;;4974918;28;87489;-52
2022/01/14 05:17:42;;;;;;;9.23;4.93;;;1.50;99.90;1.10;95271.00;;;;4975744;28;88554;-54
2022/01/14 05:20:09;;;;;;;9.95;5.20;;;1.60;99.90;1.10;95254.00;;;;4976464;28;87853;-55
2022/01/14 05:22:35;;;;;;;10.35;5.00;;;1.50;99.90;1.10;95259.00;;;;4976815;28;87076;-52
2022/01/14 05:25:02;;;;;;;8.55;4.70;;;1.50;99.90;1.10;95250.00;;;;4978099;28;87151;-51
2022/01/14 05:27:28;;;;;;;9.85;4.95;;;1.50;99.90;1.20;95257.00;;;;4977377;28;87543;-51
2022/01/14 05:29:54;;;;;;;8.15;3.88;;;1.60;99.90;1.10;95234.00;;;;4979829;28;87202;-51
2022/01/14 05:32:22;;;;;;;9.88;3.95;;;1.50;99.90;1.10;95228.00;;;;4980419;28;87000;-54
2022/01/14 05:34:48;;;;;;;10.65;4.15;;;1.50;99.90;1.20;95233.00;;;;4979476;28;87383;-53
2022/01/14 05:37:14;;;;;;;11.43;4.20;;;1.50;99.90;1.10;95220.00;;;;4977914;28;89925;-51
2022/01/14 05:39:41;;;;;;;9.02;4.30;;;1.50;99.90;1.10;95218.00;;;;4978678;28;88899;-52
2022/01/14 05:42:09;;;;;;;11.25;3.70;;;1.50;99.90;1.10;95213.00;;;;4978977;28;87752;-53
2022/01/14 05:44:36;;;;;;;9.05;3.80;;;1.50;99.90;1.10;95188.00;;;;4979630;28;87053;-54
2022/01/14 05:47:03;;;;;;;9.63;3.40;;;1.50;99.90;1.10;95195.00;;;;4978014;28;87969;-53
2022/01/14 05:49:29;;;;;;;9.48;3.58;;;1.50;99.90;1.10;95207.00;;;;4979590;28;87376;-52
2022/01/14 05:51:56;;;;;;;7.93;3.10;;;1.50;99.90;1.10;95210.00;;;;4979157;28;87427;-54
2022/01/14 05:54:23;;;;;;;10.20;3.67;;;1.50;99.90;1.10;95188.00;;;;4979662;28;86642;-54
2022/01/14 05:56:49;;;;;;;8.15;3.88;;;1.50;99.90;1.10;95181.00;;;;4978074;28;90069;-55
2022/01/14 05:59:16;;;;;;;7.18;3.20;;;1.50;99.90;1.10;95183.00;;;;4980286;28;87334;-50
2022/01/14 06:01:45;;;;;;;9.13;3.60;;;1.50;99.90;1.10;95184.00;;;;4979410;28;88564;-52
2022/01/14 06:04:11;;;;;;;9.07;4.40;;;1.50;99.90;1.10;95164.00;;;;4976275;28;87276;-54
2022/01/14 06:06:38;;;;;;;13.30;4.80;;;1.50;99.90;1.10;95159.00;;;;4979917;28;88124;-50
2022/01/14 06:09:04;;;;;;;10.65;5.07;;;1.50;99.90;1.10;95158.00;;;;4979673;28;87470;-53
2022/01/14 06:11:31;;;;;;;18.73;5.10;;;1.50;99.90;1.10;95137.00;;;;4979684;28;87305;-54
2022/01/14 06:13:57;;;;;;;10.98;3.92;;;1.50;99.90;1.10;95154.00;;;;4979705;28;87401;-52
2022/01/14 06:16:24;;;;;;;11.68;4.63;;;1.50;99.90;1.10;95138.00;;;;4979428;28;88770;-54
2022/01/14 06:18:50;;;;;;;12.13;4.90;;;1.50;99.90;1.10;95143.00;;;;4979637;28;87392;-53
2022/01/14 06:21:16;;;;;;;11.10;3.92;;;1.50;99.90;1.10;95126.00;;;;4978532;28;87120;-55
2022/01/14 06:23:42;;;;;;;12.43;3.58;;;1.50;99.90;1.10;95115.00;;;;4982392;28;87054;-53
2022/01/14 06:26:09;;;;;;;9.23;4.65;;;1.50;99.90;1.10;95115.00;;;;4978986;28;88651;-53
2022/01/14 06:28:35;;;;;;;7.43;4.10;;;1.50;99.90;1.10;95095.00;;;;4979266;28;87132;-53
2022/01/14 06:31:01;;;;;;;11.55;3.90;;;1.50;99.90;1.10;95099.00;;;;4978732;28;87240;-52
2022/01/14 06:33:27;;;;;;;11.43;4.10;;;1.50;99.90;1.10;95092.00;;;;4981220;28;87526;-49
2022/01/14 06:35:54;;;;;;;10.77;2.97;;;1.50;99.90;1.10;95081.00;;;;4979274;28;88711;-51
2022/01/14 06:38:21;;;;;;;11.82;3.83;;;1.50;99.90;1.10;95079.00;;;;4978334;28;87844;-54
2022/01/14 06:40:47;;;;;;;7.68;3.55;;;1.50;99.90;1.10;95072.00;;;;4978104;28;87242;-53
2022/01/14 06:43:15;;;;;;;7.03;3.38;;;1.50;99.90;1.10;95070.00;;;;4978320;28;87119;-55
2022/01/14 06:45:42;;;;;;;11.43;3.53;;;1.50;99.90;1.10;95071.00;;;;4978381;28;87562;-54
2022/01/14 06:48:09;;;;;;;11.15;3.50;;;1.50;99.90;1.10;95065.00;;;;4976680;28;88486;-53
2022/01/14 06:50:36;;;;;;;6.30;3.33;;;1.50;99.90;1.10;95067.00;;;;4979167;28;88302;-55
2022/01/14 06:53:02;;;;;;;7.35;3.42;;;1.50;99.90;1.10;95053.00;;;;4979254;28;87685;-52
2022/01/14 06:55:29;;;;;;;8.25;3.83;;;1.60;99.90;1.20;95050.00;;;;4978892;28;88176;-54
2022/01/14 06:57:55;;;;;;;8.90;3.67;;;1.60;99.90;1.20;95046.00;;;;4975749;28;88405;-50
2022/01/14 07:00:21;;;;;;;8.13;3.33;;;1.50;99.90;1.20;95052.00;;;;4977492;28;87435;-54
2022/01/14 07:02:48;;;;;;;6.45;3.00;;;1.50;99.90;1.20;95051.00;;;;4979409;28;87389;-54
2022/01/14 07:05:14;;;;;;;11.45;3.45;;;1.60;99.90;1.20;95056.00;;;;4979217;28;88325;-54
2022/01/14 07:07:41;;;;;;;6.03;3.08;;;1.60;99.90;1.20;95049.00;;;;4977821;28;87214;-55
2022/01/14 07:10:09;;;;;;;9.07;3.53;;;1.60;99.90;1.20;95044.00;;;;4978382;28;87066;-54
2022/01/14 07:12:38;;;;;;;6.57;2.30;;;1.60;99.90;1.20;95051.00;;;;4978995;28;87110;-53
2022/01/14 07:15:10;;;;;;;12.82;4.95;;;1.70;99.90;1.30;95032.00;;;;4960898;28;88359;-55
2022/01/14 07:17:37;;;;;;;9.90;3.20;;;1.70;99.90;1.30;95036.00;;;;4976678;28;88127;-52
2022/01/14 07:20:11;;;;;;;11.20;3.95;;;1.70;99.90;1.30;95034.00;;;;4978657;28;87351;-55
2022/01/14 07:22:38;;;;;;;5.55;2.60;;;1.70;99.90;1.30;95028.00;;;;4977683;28;87499;-51
2022/01/14 07:25:05;;;;;;;8.13;2.50;;;1.80;99.90;1.30;95013.00;;;;4977858;28;88168;-53
2022/01/14 07:27:32;;;;;;;8.02;3.13;;;1.80;99.90;1.30;94967.00;;;;4978219;28;87333;-52
2022/01/14 07:29:59;;;;;;;5.28;2.20;;;1.80;99.90;1.30;94972.00;;;;4977976;28;87510;-53
2022/01/14 07:32:25;;;;;;;4.80;2.10;;;1.80;99.90;1.30;94991.00;;;;4977833;28;86540;-54
2022/01/14 07:34:52;;;;;;;4.22;1.83;;;1.80;99.80;1.40;94997.00;;;;4976606;28;88649;-52
2022/01/14 07:37:18;;;;;;;3.13;1.80;;;1.80;99.50;1.40;94977.00;;;;4977472;28;87031;-50
2022/01/14 07:39:45;;;;;;;3.78;2.00;;;1.80;99.40;1.40;94974.00;;;;4977383;28;88323;-52
2022/01/14 07:42:11;;;;;;;5.60;2.20;;;1.90;99.50;1.40;94942.00;;;;4975921;28;87468;-54
2022/01/14 07:44:40;;;;;;;6.13;2.47;;;1.80;99.40;1.40;94931.00;;;;4978045;28;87290;-51
2022/01/14 07:47:07;;;;;;;5.75;2.05;;;1.90;99.20;1.40;94938.00;;;;4977994;28;87799;-53
2022/01/14 07:49:33;;;;;;;3.47;1.30;;;1.80;99.00;1.40;94945.00;;;;4976823;28;87252;-50
2022/01/14 07:51:59;;;;;;;5.10;1.55;;;1.90;99.00;1.40;94954.00;;;;4977303;28;87375;-53
2022/01/14 07:54:26;;;;;;;4.22;1.65;;;1.90;99.00;1.40;94939.00;;;;4977701;28;88481;-60
2022/01/14 07:56:57;;;;;;;8.07;2.65;;;1.90;99.30;1.40;94926.00;;;;4977902;28;87407;-61
2022/01/14 07:59:26;;;;;;;13.75;2.33;;;1.90;98.90;1.50;94933.00;;;;4978527;28;87451;-60
2022/01/14 08:01:58;;;;;;;4.65;1.30;;;1.90;98.80;1.40;94900.00;;;;4977067;28;87598;-59
2022/01/14 08:04:26;;;;;;;4.63;1.25;;;1.90;98.60;1.40;94914.00;;;;4976268;28;88426;-61
2022/01/14 08:06:56;;;;;;;8.63;1.77;;;1.80;98.40;1.50;94912.00;;;;4977450;28;87565;-58
2022/01/14 08:09:23;;;;;;;5.32;1.73;;;1.90;98.50;1.50;94912.00;;;;4978057;28;87839;-60
2022/01/14 08:11:50;;;;;;;3.40;1.20;;;1.90;98.50;1.40;94901.00;;;;4977293;28;87456;-61
2022/01/14 08:14:16;;;;;;;2.33;1.10;;;1.90;98.30;1.40;94889.00;;;;4977758;28;87707;-60
2022/01/14 08:16:43;;;;;;;3.97;1.00;;;1.90;98.60;1.40;94904.00;;;;4977549;28;87293;-58
2022/01/14 08:19:09;;;;;;;2.42;1.33;;;1.90;98.10;1.40;94897.00;;;;4977856;28;86981;-59
2022/01/14 08:21:35;;;;;;;5.72;1.50;;;1.80;98.10;1.40;94884.00;;;;4977841;28;86618;-60
2022/01/14 08:24:01;;;;;;;2.50;1.38;;;1.80;98.00;1.40;94873.00;;;;4979809;28;87752;-60
2022/01/14 08:26:27;;;;;;;3.75;1.42;;;1.90;98.00;1.50;94855.00;;;;4977469;28;87366;-60
2022/01/14 08:28:53;;;;;;;4.80;1.40;;;1.90;97.90;1.50;94864.00;;;;4974283;28;88398;-61
2022/01/14 08:31:19;;;;;;;4.05;1.67;;;1.90;97.80;1.50;94834.00;;;;4977015;28;87478;-59
2022/01/14 08:33:46;;;;;;;3.45;1.42;;;1.90;97.70;1.50;94829.00;;;;4977294;28;88883;-60
2022/01/14 08:36:13;;;;;;;1.95;1.40;;;1.90;97.70;1.40;94830.00;;;;4977418;28;87854;-60
2022/01/14 08:38:40;;;;;;;5.20;2.00;;;1.90;97.70;1.50;94826.00;;;;4976091;28;87475;-57
2022/01/14 08:41:06;;;;;;;4.50;1.42;;;1.90;97.80;1.50;94800.00;;;;4975330;28;87378;-60
2022/01/14 08:43:32;;;;;;;7.18;1.48;;;1.90;97.70;1.40;94801.00;;;;4974105;28;87513;-60
2022/01/14 08:46:01;;;;;;;7.97;2.05;;;1.90;97.60;1.40;94798.00;;;;4977595;28;87755;-59
2022/01/14 08:48:27;;;;;;;3.45;1.70;;;1.80;97.60;1.40;94792.00;;;;4977376;28;87463;-59
2022/01/14 08:50:54;;;;;;;6.00;1.50;;;1.80;97.70;1.30;94810.00;;;;4975238;28;87342;-60
2022/01/14 08:53:20;;;;;;;5.18;1.80;;;1.80;97.80;1.40;94790.00;;;;4976244;28;89316;-61
2022/01/14 08:55:46;;;;;;;4.20;1.80;;;1.80;97.80;1.40;94776.00;;;;4976446;28;88923;-60
2022/01/14 08:58:13;;;;;;;7.00;1.98;;;1.80;97.80;1.40;94781.00;;;;4976900;28;87252;-60
2022/01/14 09:00:39;;;;;;;5.00;1.63;;;1.80;97.60;1.40;94786.00;;;;4977563;28;87467;-60
2022/01/14 09:03:06;;;;;;;4.65;1.58;;;1.80;97.60;1.40;94767.00;;;;4976796;28;87496;-60
2022/01/14 09:05:33;;;;;;;3.53;1.50;;;1.80;97.60;1.40;94752.00;;;;4973920;28;88436;-61
2022/01/14 09:08:01;;;;;;;7.30;1.80;;;1.80;97.30;1.40;94752.00;;;;4977186;28;87242;-61
2022/01/14 09:10:28;;;;;;;2.53;1.58;;;1.90;97.10;1.50;94754.00;;;;4977381;28;86553;-60
2022/01/14 09:12:54;;;;;;;4.75;1.70;;;1.90;97.10;1.50;94754.00;;;;4978533;28;87684;-60
2022/01/14 09:15:21;;;;;;;4.57;1.73;;;2.00;96.60;1.50;94735.00;;;;4976696;28;87232;-59
2022/01/14 09:17:47;;;;;;;3.10;1.52;;;2.00;96.80;1.60;94720.00;;;;4976694;28;88009;-61
2022/01/14 09:20:14;;;;;;;5.80;1.75;;;2.00;96.50;1.60;94720.00;;;;4976890;28;87058;-61
2022/01/14 09:22:48;;;;;;;4.85;1.80;;;2.00;96.50;1.70;94708.00;;;;4976553;28;87834;-61
2022/01/14 09:25:18;;;;;;;5.00;1.35;;;2.10;96.30;1.60;94714.00;;;;4978327;28;88224;-61
2022/01/14 09:27:44;;;;;;;2.83;1.50;;;2.10;96.00;1.60;94682.00;;;;4976877;28;87228;-59
2022/01/14 09:30:11;;;;;;;3.90;1.40;;;2.00;95.70;1.60;94691.00;;;;4975517;28;87497;-60
2022/01/14 09:32:37;;;;;;;4.72;1.85;;;2.00;95.80;1.60;94683.00;;;;4974977;28;87854;-60
2022/01/14 09:35:06;;;;;;;6.32;2.08;;;2.10;96.10;1.60;94684.00;;;;4976094;28;87439;-59
2022/01/14 09:37:32;;;;;;;4.68;1.80;;;2.10;96.60;1.60;94676.00;;;;4976564;28;87529;-61
2022/01/14 09:39:58;;;;;;;6.30;2.00;;;2.00;96.10;1.60;94668.00;;;;4976373;28;87460;-60
2022/01/14 09:42:25;;;;;;;2.42;1.60;;;2.00;96.20;1.60;94681.00;;;;4974911;28;90367;-60
2022/01/14 09:44:51;;;;;;;3.72;1.73;;;2.00;96.10;1.60;94662.00;;;;4975037;28;88736;-60
2022/01/14 09:47:19;;;;;;;5.28;1.60;;;2.00;96.00;1.60;94653.00;;;;4976638;28;87372;-60
2022/01/14 09:49:47;;;;;;;6.35;2.67;;;2.00;95.80;1.60;94647.00;;;;4977104;28;87471;-59
2022/01/14 09:52:15;;;;;;;5.40;1.98;;;2.00;95.90;1.60;94641.00;;;;4976695;28;87657;-58
2022/01/14 09:54:46;;;;;;;9.00;1.90;;;2.00;96.00;1.60;94649.00;;;;4976192;28;87704;-61
2022/01/14 09:57:16;;;;;;;4.83;2.53;;;2.10;95.90;1.60;94635.00;;;;4976472;28;87258;-61
2022/01/14 09:59:42;;;;;;;7.32;2.33;;;2.10;95.60;1.70;94641.00;;;;4976723;28;86655;-60
2022/01/14 10:02:27;;;;;;;8.50;2.60;;;2.10;95.40;1.60;94629.00;;;;4974645;28;89389;-60
2022/01/14 10:04:53;;;;;;;5.55;2.17;;;2.10;95.30;1.70;94622.00;;;;4976019;28;87885;-60
2022/01/14 10:07:19;;;;;;;6.70;2.25;;;2.10;95.30;1.70;94606.00;;;;4976113;28;88248;-61
2022/01/14 10:09:54;;;;;;;7.35;3.03;;;2.10;94.90;1.70;94607.00;;;;4976283;28;87072;-61
2022/01/14 10:12:20;;;;;;;6.75;2.30;;;2.20;95.00;1.70;94600.00;;;;4974152;28;88147;-59
2022/01/14 10:15:00;;;;;;;6.18;2.15;;;2.10;94.90;1.70;94596.00;;;;4978922;28;88223;-59
2022/01/14 10:17:45;;;;;;;5.88;2.15;;;2.10;94.90;1.70;94588.00;;;;4978005;28;87244;-61
2022/01/14 10:20:14;;;;;;;5.05;1.83;;;2.20;95.00;1.70;94575.00;;;;4979089;28;87088;-60
2022/01/14 10:22:46;;;;;;;7.65;1.95;;;2.10;94.90;1.70;94575.00;;;;4978993;28;87814;-59
2022/01/14 10:25:20;;;;;;;6.63;1.80;;;2.10;94.90;1.70;94579.00;;;;4981297;28;87736;-60
2022/01/14 10:27:53;;;;;;;6.75;1.60;;;2.10;94.80;1.70;94573.00;;;;4978348;28;87445;-61
2022/01/14 10:30:29;;;;;;;7.63;2.05;;;2.10;94.80;1.70;94561.00;;;;4978003;28;87017;-60
2022/01/14 10:33:09;;;;;;;6.03;1.98;;;2.20;94.30;1.70;94558.00;;;;4976450;28;88711;-61
2022/01/14 10:35:42;;;;;;;6.32;1.58;;;2.20;94.40;1.70;94538.00;;;;4976388;28;87170;-59
2022/01/14 10:38:11;;;;;;;5.07;1.95;;;2.20;94.30;1.60;94550.00;;;;4978166;28;87148;-59
2022/01/14 10:40:50;;;;;;;5.65;2.10;;;2.10;94.30;1.60;94527.00;;;;4978033;28;87965;-61
2022/01/14 10:43:21;;;;;;;8.25;2.03;;;2.10;94.40;1.60;94518.00;;;;4978634;28;87368;-61
2022/01/14 10:45:50;;;;;;;8.20;2.40;;;2.10;94.30;1.50;94520.00;;;;4978317;28;88552;-59
2022/01/14 10:48:32;;;;;;;7.82;2.08;;;2.00;94.30;1.50;94531.00;;;;4978482;28;88154;-59
2022/01/14 10:50:59;;;;;;;5.85;1.50;;;2.00;94.50;1.30;94541.00;;;;4977469;28;86945;-57
2022/01/14 10:53:36;;;;;;;2.97;1.20;;;1.70;95.40;1.00;94542.00;;;;4977524;28;87524;-62
2022/01/14 10:56:05;;;;;;;3.85;1.17;;;1.40;96.60;0.70;94558.00;;;;4976804;28;87356;-61
2022/01/14 10:58:36;;;;;;;2.05;1.02;;;1.10;97.30;0.40;94531.00;;;;4977765;28;88203;-61
2022/01/14 11:01:07;;;;;;;1.95;1.20;;;0.90;97.90;0.40;94540.00;;;;4978981;28;86994;-59
2022/01/14 11:03:46;;;;;;;2.80;1.20;;;0.80;99.30;0.40;94533.00;;;;4979054;28;88895;-60
2022/01/14 11:06:32;;;;;;;1.45;0.90;;;0.80;99.90;0.50;94530.00;;;;4977576;28;88592;-61
2022/01/14 11:09:18;;;;;;;1.85;1.10;;;0.80;99.50;0.40;94528.00;;;;4978411;28;87347;-60
2022/01/14 11:11:47;;;;;;;2.35;1.20;;;0.80;99.30;0.40;94522.00;;;;4978828;28;87571;-62
2022/01/14 11:14:14;;;;;;;4.18;1.67;;;0.80;99.20;0.30;94527.00;;;;4978116;28;88129;-60
2022/01/14 11:16:41;;;;;;;1.98;1.65;;;0.70;99.40;0.20;94522.00;;;;4979083;28;86777;-61
2022/01/14 11:19:09;;;;;;;1.80;1.23;;;0.70;99.00;0.20;94523.00;;;;4978527;28;87396;-60
2022/01/14 11:24:30;;;;;;;2.30;1.00;;;0.50;98.70;0.00;94518.00;;;;4974711;28;89455;-61
2022/01/14 11:27:05;;;;;;;9.55;1.35;;;0.50;98.80;0.00;94539.00;;;;4976951;28;90480;-62
2022/01/14 11:29:58;;;;;;;2.95;1.17;;;0.50;99.30;-0.10;94523.00;;;;4961892;28;87923;-60
2022/01/14 11:32:25;;;;;;;1.92;1.10;;;0.40;98.60;-0.10;94511.00;;;;4977521;28;86973;-61
2022/01/14 11:34:51;;;;;;;3.88;1.30;;;0.30;98.30;-0.10;94512.00;;;;4977431;28;87819;-61
2022/01/14 11:37:29;;;;;;;1.83;1.13;;;0.30;98.70;-0.20;94517.00;;;;4978025;28;87080;-61